Queen Of Nanaimo — VCNX — position and weather

sailwx.info

Track history (hours):
 
Tides and Currents Weather Stations Pressure Air Temp Water Temp Dewpoint Dewpoint Depression Visibility Wind Speed Wind Dir Waves Ship Positions

Queen Of Nanaimo

Last reported at 2016-Jul-26 05:28 UTC. Time now 2016-Jul-26 10:21 UTC.
Position N 48°50' W 123°25'.

Length 130 m; draft 4 m.

Type: Passenger vessel. MMSI: 316001254.

Date/timePositionNaut miles runAvg speedWind from/ knotsBaromVisibWave heightAir tempDewpointWater temp
2016-Jul-26 05:28N 48°50' W 123°25'3 3.7
2016-Jul-26 04:33N 48°51' W 123°20'2 2.2
2016-Jul-26 03:34N 48°53' W 123°19'1110.6
2016-Jul-26 02:33N 49°00' W 123°08'2 2.5
2016-Jul-26 01:33N 48°58' W 123°10'8 8.3
2016-Jul-26 00:34N 48°53' W 123°19'5 1.2
2016-Jul-25 20:19N 48°49' W 123°25'3 3.8
2016-Jul-25 19:33N 48°48' W 123°21'4 4.3
2016-Jul-25 18:33N 48°53' W 123°19'1110.8
2016-Jul-25 17:33N 49°00' W 123°08'0 0.0
2016-Jul-25 16:33N 49°00' W 123°08'1110.7
2016-Jul-25 15:33N 48°53' W 123°19'2 1.9
2016-Jul-25 14:33N 48°51' W 123°20'3 3.4
2016-Jul-25 13:31N 48°49' W 123°24'5 0.7
2016-Jul-25 06:34N 48°52' W 123°18'1010.5
2016-Jul-25 05:34N 49°00' W 123°08'10 9.9
2016-Jul-25 04:33N 48°53' W 123°18'3 2.1
2016-Jul-25 03:19N 48°51' W 123°20'911.8
2016-Jul-25 02:33N 48°58' W 123°12'4 3.7
2016-Jul-25 01:34N 49°00' W 123°08'1110.6
2016-Jul-25 00:33N 48°53' W 123°19'5 5.4
2016-Jul-24 23:33N 48°51' W 123°27'4 3.8
2016-Jul-24 22:31N 48°52' W 123°21'1212.8
2016-Jul-24 21:33N 49°00' W 123°08'3 2.9
2016-Jul-24 20:34N 48°58' W 123°10'8 8.4
2016-Jul-24 19:33N 48°52' W 123°19'1 1.2
2016-Jul-24 18:29N 48°51' W 123°20'2 2.1
2016-Jul-24 17:33N 48°53' W 123°19'1110.6
2016-Jul-24 16:33N 49°00' W 123°08'7 6.7
2016-Jul-24 15:34N 48°55' W 123°14'7 7.1
2016-Jul-24 14:34N 48°51' W 123°23'3 1.1
2016-Jul-24 12:15N 48°51' W 123°27'0 0.0
2016-Jul-24 10:18N 48°51' W 123°27'0 0.0
2016-Jul-24 09:33N 48°51' W 123°27'0 0.0
2016-Jul-24 07:18N 48°51' W 123°27'0 0.0
2016-Jul-24 06:03N 48°51' W 123°27'2 4.6
2016-Jul-24 05:33N 48°51' W 123°23'1313.5
2016-Jul-24 04:33N 49°00' W 123°08'0 0.3
2016-Jul-24 03:33N 49°00' W 123°08'0 0.0
2016-Jul-24 02:33N 49°00' W 123°08'0 0.0
2016-Jul-24 01:33N 49°00' W 123°08'1110.7
2016-Jul-24 00:33N 48°52' W 123°18'5 4.9
2016-Jul-23 23:33N 48°50' W 123°25'1 0.5
2016-Jul-23 21:07N 48°51' W 123°27'5 9.7
2016-Jul-23 20:33N 48°52' W 123°19'1111.1
2016-Jul-23 19:33N 49°00' W 123°08'8 7.7
2016-Jul-23 18:34N 48°54' W 123°15'5 4.6
2016-Jul-23 17:33N 48°51' W 123°20'3 2.6
2016-Jul-23 16:33N 48°53' W 123°18'10 9.9
2016-Jul-23 15:33N 49°00' W 123°08'0 0.0
2016-Jul-23 14:33N 49°00' W 123°08'1414.1
2016-Jul-23 13:33N 48°51' W 123°24'4 0.6
2016-Jul-23 06:17N 48°48' W 123°20'15 8.5
2016-Jul-23 04:33N 49°00' W 123°08'6 6.2
2016-Jul-23 03:33N 48°56' W 123°14'5 2.3
2016-Jul-23 01:33N 48°53' W 123°19'1110.7
2016-Jul-23 00:33N 49°00' W 123°08'0 0.0
2016-Jul-22 23:33N 49°00' W 123°08'1 1.3
2016-Jul-22 22:33N 48°59' W 123°09'1313.4
2016-Jul-22 21:33N 48°51' W 123°25'1 1.4
2016-Jul-22 20:32N 48°51' W 123°27'5 5.7
2016-Jul-22 19:34N 48°48' W 123°20'5 4.7
2016-Jul-22 18:33N 48°53' W 123°19'9 9.3
2016-Jul-22 17:33N 48°59' W 123°09'1 1.4
2016-Jul-22 16:33N 49°00' W 123°08'1110.7
2016-Jul-22 15:34N 48°53' W 123°19'2 2.2
2016-Jul-22 14:28N 48°50' W 123°20'3 3.4
2016-Jul-22 13:30N 48°50' W 123°25'4 0.4
2016-Jul-22 04:30N 48°51' W 123°20'6 6.5
2016-Jul-22 03:33N 48°56' W 123°15'6 6.4
2016-Jul-22 02:33N 49°00' W 123°08'4 4.3
2016-Jul-22 01:33N 48°57' W 123°11'6 6.4
2016-Jul-22 00:34N 48°52' W 123°18'5 1.2
2016-Jul-21 20:21N 48°50' W 123°25'4 4.9
2016-Jul-21 19:33N 48°48' W 123°20'4 3.8
2016-Jul-21 18:27N 48°53' W 123°19'1111.6
2016-Jul-21 17:32N 49°00' W 123°08'0 0.1
2016-Jul-21 16:33N 49°00' W 123°08'11 0.9
2016-Jul-21 04:06N 48°52' W 123°18'3 5.2
2016-Jul-21 03:33N 48°55' W 123°17'8 8.1
2016-Jul-21 02:33N 49°00' W 123°08'6 5.6
2016-Jul-21 01:34N 48°56' W 123°13'5 5.2
2016-Jul-21 00:34N 48°52' W 123°18'5 3.1
2016-Jul-20 23:04N 48°48' W 123°20'1 0.4
2016-Jul-20 20:29N 48°48' W 123°21'4 2.7
2016-Jul-20 19:06N 48°52' W 123°19'1 2.0
2016-Jul-20 18:33N 48°53' W 123°19'1110.7
2016-Jul-20 17:34N 49°00' W 123°08'2 1.9
2016-Jul-20 16:34N 48°59' W 123°09'9 8.9
2016-Jul-20 15:33N 48°52' W 123°18'3 2.4
2016-Jul-20 14:30N 48°50' W 123°20'3 3.0
2016-Jul-20 13:28N 48°50' W 123°25'0 0.0
2016-Jul-20 05:32N 48°50' W 123°25'4 3.4
2016-Jul-20 04:26N 48°51' W 123°20'2 2.6
2016-Jul-20 03:33N 48°53' W 123°18'1010.2
2016-Jul-20 02:33N 49°00' W 123°08'2 1.7
2016-Jul-20 01:33N 48°59' W 123°09'9 9.0
2016-Jul-20 00:33N 48°53' W 123°19'5 3.3
2016-Jul-19 23:05N 48°48' W 123°20'3 0.8
2016-Jul-19 19:30N 48°51' W 123°20'2 1.9
2016-Jul-19 18:29N 48°53' W 123°19'1111.5
2016-Jul-19 17:33N 49°00' W 123°08'0 0.0
2016-Jul-19 16:34N 49°00' W 123°08'1110.5
2016-Jul-19 15:33N 48°53' W 123°19'2 2.0
2016-Jul-19 14:34N 48°51' W 123°20'3 3.2
2016-Jul-19 13:33N 48°49' W 123°24'3 0.3
2016-Jul-19 04:11N 48°51' W 123°21'3 5.4
2016-Jul-19 03:33N 48°54' W 123°17'9 9.2
2016-Jul-19 02:33N 49°00' W 123°08'6 5.6
2016-Jul-19 01:33N 48°56' W 123°13'10 1.8
2016-Jul-18 20:18N 48°48' W 123°22'3 3.4
2016-Jul-18 19:27N 48°51' W 123°20'2 2.2
2016-Jul-18 18:33N 48°53' W 123°19'1110.7
2016-Jul-18 17:33N 49°00' W 123°08'0 0.1
2016-Jul-18 16:34N 49°00' W 123°08'1110.6
2016-Jul-18 15:33N 48°53' W 123°19'3 3.1
2016-Jul-18 14:32N 48°50' W 123°20'3 2.8
2016-Jul-18 13:33N 48°49' W 123°24'4 0.6
2016-Jul-18 06:33N 48°52' W 123°19'1111.4
2016-Jul-18 05:33N 49°00' W 123°08'1110.7
2016-Jul-18 04:33N 48°53' W 123°19'2 1.8
2016-Jul-18 03:29N 48°51' W 123°20'1011.0
2016-Jul-18 02:33N 48°59' W 123°10'1 1.5
2016-Jul-18 01:34N 48°58' W 123°11'7 7.1
2016-Jul-18 00:33N 48°52' W 123°18'5 3.3
2016-Jul-17 23:05N 48°50' W 123°25'712.4
2016-Jul-17 22:33N 48°54' W 123°17'9 8.6
2016-Jul-17 21:33N 49°00' W 123°08'7 7.4
2016-Jul-17 20:33N 48°55' W 123°15'5 2.3
2016-Jul-17 18:32N 48°52' W 123°20'8 7.9
2016-Jul-17 17:33N 48°57' W 123°12'4 4.3
2016-Jul-17 16:34N 49°00' W 123°08'0 0.0
2016-Jul-17 15:34N 49°00' W 123°08'0 0.0
2016-Jul-17 14:33N 49°00' W 123°08'0 0.0
2016-Jul-17 13:33N 49°00' W 123°08'0 0.0
2016-Jul-17 12:33N 49°00' W 123°08'0 0.0
2016-Jul-17 11:33N 49°00' W 123°08'0 0.0
2016-Jul-17 10:30N 49°00' W 123°08'0 0.0
2016-Jul-17 09:33N 49°00' W 123°08'0 0.0
2016-Jul-17 08:33N 49°00' W 123°08'0 0.0
2016-Jul-17 07:30N 49°00' W 123°08'0 0.0
2016-Jul-17 06:33N 49°00' W 123°08'0 0.0
2016-Jul-17 04:33N 49°00' W 123°08'0 0.0
2016-Jul-17 03:33N 49°00' W 123°08'0 0.0
2016-Jul-17 02:33N 49°00' W 123°08'0 0.0
2016-Jul-17 01:34N 49°00' W 123°08'1110.9
2016-Jul-17 00:33N 48°52' W 123°18'5 1.6
2016-Jul-16 21:28N 48°51' W 123°26'1010.8
2016-Jul-16 20:33N 48°57' W 123°14'5 5.4
2016-Jul-16 19:33N 49°00' W 123°08'9 9.5
2016-Jul-16 18:34N 48°53' W 123°17'3 3.1
2016-Jul-16 17:33N 48°51' W 123°20'5 4.6
2016-Jul-16 16:33N 48°55' W 123°16'8 8.1
2016-Jul-16 15:34N 49°00' W 123°08'3 3.4
2016-Jul-16 14:34N 48°57' W 123°10'1211.2
2016-Jul-16 13:28N 48°51' W 123°26'0 0.3
2016-Jul-16 12:12N 48°51' W 123°27'0 0.0
2016-Jul-16 11:09N 48°51' W 123°27'0 0.0
2016-Jul-16 06:33N 48°51' W 123°27'  
Track history (hours):
 
Tides and Currents Weather Stations Pressure Air Temp Water Temp Dewpoint Dewpoint Depression Visibility Wind Speed Wind Dir Waves Ship Positions

Queen Of Nanaimo

Last reported at 2016-Jul-26 05:28 UTC. Time now 2016-Jul-26 10:21 UTC.
Position N 48°50' W 123°25'.

Length 130 m; draft 4 m.

Type: Passenger vessel. MMSI: 316001254.

Date/timePositionNaut miles runAvg speedWind from/ knotsBaromVisibWave heightAir tempDewpointWater temp
2016-Jul-26 05:28N 48°50' W 123°25'3 3.7
2016-Jul-26 04:33N 48°51' W 123°20'2 2.2
2016-Jul-26 03:34N 48°53' W 123°19'1110.6
2016-Jul-26 02:33N 49°00' W 123°08'2 2.5
2016-Jul-26 01:33N 48°58' W 123°10'8 8.3
2016-Jul-26 00:34N 48°53' W 123°19'5 1.2
2016-Jul-25 20:19N 48°49' W 123°25'3 3.8
2016-Jul-25 19:33N 48°48' W 123°21'4 4.3
2016-Jul-25 18:33N 48°53' W 123°19'1110.8
2016-Jul-25 17:33N 49°00' W 123°08'0 0.0
2016-Jul-25 16:33N 49°00' W 123°08'1110.7
2016-Jul-25 15:33N 48°53' W 123°19'2 1.9
2016-Jul-25 14:33N 48°51' W 123°20'3 3.4
2016-Jul-25 13:31N 48°49' W 123°24'5 0.7
2016-Jul-25 06:34N 48°52' W 123°18'1010.5
2016-Jul-25 05:34N 49°00' W 123°08'10 9.9
2016-Jul-25 04:33N 48°53' W 123°18'3 2.1
2016-Jul-25 03:19N 48°51' W 123°20'911.8
2016-Jul-25 02:33N 48°58' W 123°12'4 3.7
2016-Jul-25 01:34N 49°00' W 123°08'1110.6
2016-Jul-25 00:33N 48°53' W 123°19'5 5.4
2016-Jul-24 23:33N 48°51' W 123°27'4 3.8
2016-Jul-24 22:31N 48°52' W 123°21'1212.8
2016-Jul-24 21:33N 49°00' W 123°08'3 2.9
2016-Jul-24 20:34N 48°58' W 123°10'8 8.4
2016-Jul-24 19:33N 48°52' W 123°19'1 1.2
2016-Jul-24 18:29N 48°51' W 123°20'2 2.1
2016-Jul-24 17:33N 48°53' W 123°19'1110.6
2016-Jul-24 16:33N 49°00' W 123°08'7 6.7
2016-Jul-24 15:34N 48°55' W 123°14'7 7.1
2016-Jul-24 14:34N 48°51' W 123°23'3 1.1
2016-Jul-24 12:15N 48°51' W 123°27'0 0.0
2016-Jul-24 10:18N 48°51' W 123°27'0 0.0
2016-Jul-24 09:33N 48°51' W 123°27'0 0.0
2016-Jul-24 07:18N 48°51' W 123°27'0 0.0
2016-Jul-24 06:03N 48°51' W 123°27'2 4.6
2016-Jul-24 05:33N 48°51' W 123°23'1313.5
2016-Jul-24 04:33N 49°00' W 123°08'0 0.3
2016-Jul-24 03:33N 49°00' W 123°08'0 0.0
2016-Jul-24 02:33N 49°00' W 123°08'0 0.0
2016-Jul-24 01:33N 49°00' W 123°08'1110.7
2016-Jul-24 00:33N 48°52' W 123°18'5 4.9
2016-Jul-23 23:33N 48°50' W 123°25'1 0.5
2016-Jul-23 21:07N 48°51' W 123°27'5 9.7
2016-Jul-23 20:33N 48°52' W 123°19'1111.1
2016-Jul-23 19:33N 49°00' W 123°08'8 7.7
2016-Jul-23 18:34N 48°54' W 123°15'5 4.6
2016-Jul-23 17:33N 48°51' W 123°20'3 2.6
2016-Jul-23 16:33N 48°53' W 123°18'10 9.9
2016-Jul-23 15:33N 49°00' W 123°08'0 0.0
2016-Jul-23 14:33N 49°00' W 123°08'1414.1
2016-Jul-23 13:33N 48°51' W 123°24'4 0.6
2016-Jul-23 06:17N 48°48' W 123°20'15 8.5
2016-Jul-23 04:33N 49°00' W 123°08'6 6.2
2016-Jul-23 03:33N 48°56' W 123°14'5 2.3
2016-Jul-23 01:33N 48°53' W 123°19'1110.7
2016-Jul-23 00:33N 49°00' W 123°08'0 0.0
2016-Jul-22 23:33N 49°00' W 123°08'1 1.3
2016-Jul-22 22:33N 48°59' W 123°09'1313.4
2016-Jul-22 21:33N 48°51' W 123°25'1 1.4
2016-Jul-22 20:32N 48°51' W 123°27'5 5.7
2016-Jul-22 19:34N 48°48' W 123°20'5 4.7
2016-Jul-22 18:33N 48°53' W 123°19'9 9.3
2016-Jul-22 17:33N 48°59' W 123°09'1 1.4
2016-Jul-22 16:33N 49°00' W 123°08'1110.7
2016-Jul-22 15:34N 48°53' W 123°19'2 2.2
2016-Jul-22 14:28N 48°50' W 123°20'3 3.4
2016-Jul-22 13:30N 48°50' W 123°25'4 0.4
2016-Jul-22 04:30N 48°51' W 123°20'6 6.5
2016-Jul-22 03:33N 48°56' W 123°15'6 6.4
2016-Jul-22 02:33N 49°00' W 123°08'4 4.3
2016-Jul-22 01:33N 48°57' W 123°11'6 6.4
2016-Jul-22 00:34N 48°52' W 123°18'5 1.2
2016-Jul-21 20:21N 48°50' W 123°25'4 4.9
2016-Jul-21 19:33N 48°48' W 123°20'4 3.8
2016-Jul-21 18:27N 48°53' W 123°19'1111.6
2016-Jul-21 17:32N 49°00' W 123°08'0 0.1
2016-Jul-21 16:33N 49°00' W 123°08'11 0.9
2016-Jul-21 04:06N 48°52' W 123°18'3 5.2
2016-Jul-21 03:33N 48°55' W 123°17'8 8.1
2016-Jul-21 02:33N 49°00' W 123°08'6 5.6
2016-Jul-21 01:34N 48°56' W 123°13'5 5.2
2016-Jul-21 00:34N 48°52' W 123°18'5 3.1
2016-Jul-20 23:04N 48°48' W 123°20'1 0.4
2016-Jul-20 20:29N 48°48' W 123°21'4 2.7
2016-Jul-20 19:06N 48°52' W 123°19'1 2.0
2016-Jul-20 18:33N 48°53' W 123°19'1110.7
2016-Jul-20 17:34N 49°00' W 123°08'2 1.9
2016-Jul-20 16:34N 48°59' W 123°09'9 8.9
2016-Jul-20 15:33N 48°52' W 123°18'3 2.4
2016-Jul-20 14:30N 48°50' W 123°20'3 3.0
2016-Jul-20 13:28N 48°50' W 123°25'0 0.0
2016-Jul-20 05:32N 48°50' W 123°25'4 3.4
2016-Jul-20 04:26N 48°51' W 123°20'2 2.6
2016-Jul-20 03:33N 48°53' W 123°18'1010.2
2016-Jul-20 02:33N 49°00' W 123°08'2 1.7
2016-Jul-20 01:33N 48°59' W 123°09'9 9.0
2016-Jul-20 00:33N 48°53' W 123°19'5 3.3
2016-Jul-19 23:05N 48°48' W 123°20'3 0.8
2016-Jul-19 19:30N 48°51' W 123°20'2 1.9
2016-Jul-19 18:29N 48°53' W 123°19'1111.5
2016-Jul-19 17:33N 49°00' W 123°08'0 0.0
2016-Jul-19 16:34N 49°00' W 123°08'1110.5
2016-Jul-19 15:33N 48°53' W 123°19'2 2.0
2016-Jul-19 14:34N 48°51' W 123°20'3 3.2
2016-Jul-19 13:33N 48°49' W 123°24'3 0.3
2016-Jul-19 04:11N 48°51' W 123°21'3 5.4
2016-Jul-19 03:33N 48°54' W 123°17'9 9.2
2016-Jul-19 02:33N 49°00' W 123°08'6 5.6
2016-Jul-19 01:33N 48°56' W 123°13'10 1.8
2016-Jul-18 20:18N 48°48' W 123°22'3 3.4
2016-Jul-18 19:27N 48°51' W 123°20'2 2.2
2016-Jul-18 18:33N 48°53' W 123°19'1110.7
2016-Jul-18 17:33N 49°00' W 123°08'0 0.1
2016-Jul-18 16:34N 49°00' W 123°08'1110.6
2016-Jul-18 15:33N 48°53' W 123°19'3 3.1
2016-Jul-18 14:32N 48°50' W 123°20'3 2.8
2016-Jul-18 13:33N 48°49' W 123°24'4 0.6
2016-Jul-18 06:33N 48°52' W 123°19'1111.4
2016-Jul-18 05:33N 49°00' W 123°08'1110.7
2016-Jul-18 04:33N 48°53' W 123°19'2 1.8
2016-Jul-18 03:29N 48°51' W 123°20'1011.0
2016-Jul-18 02:33N 48°59' W 123°10'1 1.5
2016-Jul-18 01:34N 48°58' W 123°11'7 7.1
2016-Jul-18 00:33N 48°52' W 123°18'5 3.3
2016-Jul-17 23:05N 48°50' W 123°25'712.4
2016-Jul-17 22:33N 48°54' W 123°17'9 8.6
2016-Jul-17 21:33N 49°00' W 123°08'7 7.4
2016-Jul-17 20:33N 48°55' W 123°15'5 2.3
2016-Jul-17 18:32N 48°52' W 123°20'8 7.9
2016-Jul-17 17:33N 48°57' W 123°12'4 4.3
2016-Jul-17 16:34N 49°00' W 123°08'0 0.0
2016-Jul-17 15:34N 49°00' W 123°08'0 0.0
2016-Jul-17 14:33N 49°00' W 123°08'0 0.0
2016-Jul-17 13:33N 49°00' W 123°08'0 0.0
2016-Jul-17 12:33N 49°00' W 123°08'0 0.0
2016-Jul-17 11:33N 49°00' W 123°08'0 0.0
2016-Jul-17 10:30N 49°00' W 123°08'0 0.0
2016-Jul-17 09:33N 49°00' W 123°08'0 0.0
2016-Jul-17 08:33N 49°00' W 123°08'0 0.0
2016-Jul-17 07:30N 49°00' W 123°08'0 0.0
2016-Jul-17 06:33N 49°00' W 123°08'0 0.0
2016-Jul-17 04:33N 49°00' W 123°08'0 0.0
2016-Jul-17 03:33N 49°00' W 123°08'0 0.0
2016-Jul-17 02:33N 49°00' W 123°08'0 0.0
2016-Jul-17 01:34N 49°00' W 123°08'1110.9
2016-Jul-17 00:33N 48°52' W 123°18'5 1.6
2016-Jul-16 21:28N 48°51' W 123°26'1010.8
2016-Jul-16 20:33N 48°57' W 123°14'5 5.4
2016-Jul-16 19:33N 49°00' W 123°08'9 9.5
2016-Jul-16 18:34N 48°53' W 123°17'3 3.1
2016-Jul-16 17:33N 48°51' W 123°20'5 4.6
2016-Jul-16 16:33N 48°55' W 123°16'8 8.1
2016-Jul-16 15:34N 49°00' W 123°08'3 3.4
2016-Jul-16 14:34N 48°57' W 123°10'1211.2
2016-Jul-16 13:28N 48°51' W 123°26'0 0.3
2016-Jul-16 12:12N 48°51' W 123°27'0 0.0
2016-Jul-16 11:09N 48°51' W 123°27'0 0.0
2016-Jul-16 06:33N 48°51' W 123°27'  

Dump ship's entire track history